sensor_id;sensor_type;location;lat;lon;timestamp;pressure;altitude;pressure_sealevel;temperature;humidity
7105;BME280;3594;42.152;24.714;2023-04-01T00:01:29;-24062.94;;;8.80;nan
7105;BME280;3594;42.152;24.714;2023-04-01T00:03:54;-24050.94;;;8.37;nan
7105;BME280;3594;42.152;24.714;2023-04-01T00:06:21;-24054.19;;;8.49;nan
7105;BME280;3594;42.152;24.714;2023-04-01T00:08:47;-24044.84;;;8.16;nan
7105;BME280;3594;42.152;24.714;2023-04-01T00:11:13;-24055.03;;;8.52;nan
7105;BME280;3594;42.152;24.714;2023-04-01T00:13:40;-24054.75;;;8.51;nan
7105;BME280;3594;42.152;24.714;2023-04-01T00:16:07;-24048.22;;;8.28;nan
7105;BME280;3594;42.152;24.714;2023-04-01T00:18:32;-24043.69;;;8.12;nan
7105;BME280;3594;42.152;24.714;2023-04-01T00:20:58;-24048.94;;;8.30;nan
7105;BME280;3594;42.152;24.714;2023-04-01T00:23:23;-24047.66;;;8.26;nan
7105;BME280;3594;42.152;24.714;2023-04-01T00:25:49;-24051.34;;;8.39;nan
7105;BME280;3594;42.152;24.714;2023-04-01T00:28:19;-24044.97;;;8.16;nan
7105;BME280;3594;42.152;24.714;2023-04-01T00:30:45;-24052.34;;;8.42;nan
7105;BME280;3594;42.152;24.714;2023-04-01T00:33:10;-24051.91;;;8.41;nan
7105;BME280;3594;42.152;24.714;2023-04-01T00:35:36;-24046.09;;;8.20;nan
7105;BME280;3594;42.152;24.714;2023-04-01T00:38:02;-24042.16;;;8.06;nan
7105;BME280;3594;42.152;24.714;2023-04-01T00:40:36;-24049.09;;;8.31;nan
7105;BME280;3594;42.152;24.714;2023-04-01T00:43:03;-24043.00;;;8.09;nan
7105;BME280;3594;42.152;24.714;2023-04-01T00:45:30;-24049.66;;;8.33;nan
7105;BME280;3594;42.152;24.714;2023-04-01T00:47:59;-24040.88;;;8.02;nan
7105;BME280;3594;42.152;24.714;2023-04-01T00:50:26;-24049.66;;;8.33;nan
7105;BME280;3594;42.152;24.714;2023-04-01T00:52:52;-24047.25;;;8.24;nan
7105;BME280;3594;42.152;24.714;2023-04-01T00:55:19;-24053.91;;;8.48;nan
7105;BME280;3594;42.152;24.714;2023-04-01T00:57:48;-24050.22;;;8.35;nan
7105;BME280;3594;42.152;24.714;2023-04-01T01:00:15;-24058.16;;;8.63;nan
7105;BME280;3594;42.152;24.714;2023-04-01T01:02:41;-24052.34;;;8.42;nan
7105;BME280;3594;42.152;24.714;2023-04-01T01:05:10;-24057.88;;;8.62;nan
7105;BME280;3594;42.152;24.714;2023-04-01T01:13:18;-24054.31;;;8.50;nan
7105;BME280;3594;42.152;24.714;2023-04-01T01:15:56;-24055.31;;;8.53;nan
7105;BME280;3594;42.152;24.714;2023-04-01T01:34:40;-24058.44;;;8.64;nan
7105;BME280;3594;42.152;24.714;2023-04-01T01:37:14;-24055.59;;;8.54;nan
7105;BME280;3594;42.152;24.714;2023-04-01T01:39:43;-24054.19;;;8.49;nan
7105;BME280;3594;42.152;24.714;2023-04-01T01:42:13;-24054.31;;;8.50;nan
7105;BME280;3594;42.152;24.714;2023-04-01T01:44:42;-24051.22;;;8.38;nan
7105;BME280;3594;42.152;24.714;2023-04-01T01:47:09;-24047.09;;;8.24;nan
7105;BME280;3594;42.152;24.714;2023-04-01T01:49:35;-24048.09;;;8.27;nan
7105;BME280;3594;42.152;24.714;2023-04-01T01:52:01;-24054.47;;;8.50;nan
7105;BME280;3594;42.152;24.714;2023-04-01T01:54:28;-24044.69;;;8.15;nan
7105;BME280;3594;42.152;24.714;2023-04-01T01:57:04;-24047.66;;;8.26;nan
7105;BME280;3594;42.152;24.714;2023-04-01T01:59:33;-24035.63;;;7.83;nan
7105;BME280;3594;42.152;24.714;2023-04-01T02:02:00;-24044.28;;;8.14;nan
7105;BME280;3594;42.152;24.714;2023-04-01T02:04:43;-24032.09;;;7.70;nan
7105;BME280;3594;42.152;24.714;2023-04-01T02:07:31;-24044.00;;;8.13;nan
7105;BME280;3594;42.152;24.714;2023-04-01T02:09:58;-24043.56;;;8.11;nan
7105;BME280;3594;42.152;24.714;2023-04-01T02:12:24;-24037.19;;;7.88;nan
7105;BME280;3594;42.152;24.714;2023-04-01T02:14:57;-24041.28;;;8.03;nan
7105;BME280;3594;42.152;24.714;2023-04-01T02:17:27;-24036.34;;;7.85;nan
7105;BME280;3594;42.152;24.714;2023-04-01T02:19:57;-24046.53;;;8.22;nan
7105;BME280;3594;42.152;24.714;2023-04-01T02:22:27;-24043.84;;;8.12;nan
7105;BME280;3594;42.152;24.714;2023-04-01T02:24:58;-24044.56;;;8.15;nan
7105;BME280;3594;42.152;24.714;2023-04-01T02:27:25;-24041.44;;;8.04;nan
7105;BME280;3594;42.152;24.714;2023-04-01T02:29:51;-24039.72;;;7.97;nan
7105;BME280;3594;42.152;24.714;2023-04-01T02:32:19;-24045.13;;;8.17;nan
7105;BME280;3594;42.152;24.714;2023-04-01T02:34:46;-24036.47;;;7.86;nan
7105;BME280;3594;42.152;24.714;2023-04-01T02:37:13;-24031.09;;;7.67;nan
7105;BME280;3594;42.152;24.714;2023-04-01T02:39:39;-24031.38;;;7.68;nan
7105;BME280;3594;42.152;24.714;2023-04-01T02:42:05;-24031.81;;;7.69;nan
7105;BME280;3594;42.152;24.714;2023-04-01T02:44:31;-24026.69;;;7.51;nan
7105;BME280;3594;42.152;24.714;2023-04-01T02:46:56;-24032.22;;;7.71;nan
7105;BME280;3594;42.152;24.714;2023-04-01T02:49:22;-24039.44;;;7.96;nan
7105;BME280;3594;42.152;24.714;2023-04-01T02:51:47;-24038.47;;;7.93;nan
7105;BME280;3594;42.152;24.714;2023-04-01T02:54:13;-24034.91;;;7.80;nan
7105;BME280;3594;42.152;24.714;2023-04-01T02:56:38;-24017.78;;;7.19;nan
7105;BME280;3594;42.152;24.714;2023-04-01T02:59:03;-24021.31;;;7.32;nan
7105;BME280;3594;42.152;24.714;2023-04-01T03:01:29;-24025.13;;;7.45;nan
7105;BME280;3594;42.152;24.714;2023-04-01T03:03:54;-24019.91;;;7.27;nan
7105;BME280;3594;42.152;24.714;2023-04-01T03:06:20;-24028.13;;;7.56;nan
7105;BME280;3594;42.152;24.714;2023-04-01T03:08:45;-24024.28;;;7.42;nan
7105;BME280;3594;42.152;24.714;2023-04-01T03:11:11;-24023.44;;;7.39;nan
7105;BME280;3594;42.152;24.714;2023-04-01T03:13:37;-24026.00;;;7.48;nan
7105;BME280;3594;42.152;24.714;2023-04-01T03:16:02;-24019.63;;;7.26;nan
7105;BME280;3594;42.152;24.714;2023-04-01T03:18:28;-24026.56;;;7.50;nan
7105;BME280;3594;42.152;24.714;2023-04-01T03:20:53;-24027.28;;;7.53;nan
7105;BME280;3594;42.152;24.714;2023-04-01T03:23:19;-24027.28;;;7.53;nan
7105;BME280;3594;42.152;24.714;2023-04-01T03:25:46;-24031.81;;;7.69;nan
7105;BME280;3594;42.152;24.714;2023-04-01T03:28:12;-24027.56;;;7.54;nan
7105;BME280;3594;42.152;24.714;2023-04-01T03:30:38;-24018.47;;;7.22;nan
7105;BME280;3594;42.152;24.714;2023-04-01T03:33:04;-24012.25;;;6.99;nan
7105;BME280;3594;42.152;24.714;2023-04-01T03:35:30;-24012.81;;;7.01;nan
7105;BME280;3594;42.152;24.714;2023-04-01T03:37:55;-24019.19;;;7.24;nan
7105;BME280;3594;42.152;24.714;2023-04-01T03:40:21;-24015.34;;;7.10;nan
7105;BME280;3594;42.152;24.714;2023-04-01T03:42:46;-24022.03;;;7.34;nan
7105;BME280;3594;42.152;24.714;2023-04-01T03:45:12;-24017.34;;;7.18;nan
7105;BME280;3594;42.152;24.714;2023-04-01T03:47:38;-24017.19;;;7.17;nan
7105;BME280;3594;42.152;24.714;2023-04-01T03:50:05;-24010.69;;;6.94;nan
7105;BME280;3594;42.152;24.714;2023-04-01T03:52:31;-24010.13;;;6.92;nan
7105;BME280;3594;42.152;24.714;2023-04-01T03:54:56;-24013.81;;;7.05;nan
7105;BME280;3594;42.152;24.714;2023-04-01T03:57:21;-24013.66;;;7.04;nan
7105;BME280;3594;42.152;24.714;2023-04-01T03:59:47;-24005.56;;;6.76;nan
7105;BME280;3594;42.152;24.714;2023-04-01T04:02:12;-24011.94;;;6.98;nan
7105;BME280;3594;42.152;24.714;2023-04-01T04:04:38;-24016.91;;;7.16;nan
7105;BME280;3594;42.152;24.714;2023-04-01T04:07:03;-24026.97;;;7.52;nan
7105;BME280;3594;42.152;24.714;2023-04-01T04:09:30;-23990.94;;;6.24;nan
7105;BME280;3594;42.152;24.714;2023-04-01T04:11:56;-24024.00;;;7.41;nan
7105;BME280;3594;42.152;24.714;2023-04-01T04:14:22;-24026.84;;;7.51;nan
7105;BME280;3594;42.152;24.714;2023-04-01T04:16:48;-24040.88;;;8.02;nan
7105;BME280;3594;42.152;24.714;2023-04-01T04:19:13;-24034.34;;;7.78;nan
7105;BME280;3594;42.152;24.714;2023-04-01T04:21:40;-24045.41;;;8.18;nan
7105;BME280;3594;42.152;24.714;2023-04-01T04:24:06;-24054.31;;;8.50;nan
7105;BME280;3594;42.152;24.714;2023-04-01T04:26:31;-24045.13;;;8.17;nan
7105;BME280;3594;42.152;24.714;2023-04-01T04:28:57;-24055.88;;;8.55;nan
7105;BME280;3594;42.152;24.714;2023-04-01T04:31:23;-24046.25;;;8.21;nan
7105;BME280;3594;42.152;24.714;2023-04-01T04:33:49;-24043.13;;;8.10;nan
7105;BME280;3594;42.152;24.714;2023-04-01T04:36:16;-24046.69;;;8.22;nan
7105;BME280;3594;42.152;24.714;2023-04-01T04:38:42;-24040.88;;;8.02;nan
7105;BME280;3594;42.152;24.714;2023-04-01T04:41:11;-24052.78;;;8.44;nan
7105;BME280;3594;42.152;24.714;2023-04-01T04:43:38;-24067.06;;;8.95;nan
7105;BME280;3594;42.152;24.714;2023-04-01T04:46:08;-24064.50;;;8.86;nan
7105;BME280;3594;42.152;24.714;2023-04-01T04:48:34;-24070.72;;;9.08;nan
7105;BME280;3594;42.152;24.714;2023-04-01T04:50:59;-24071.59;;;9.11;nan
7105;BME280;3594;42.152;24.714;2023-04-01T04:53:25;-24064.94;;;8.88;nan
7105;BME280;3594;42.152;24.714;2023-04-01T04:55:51;-24047.81;;;8.26;nan
7105;BME280;3594;42.152;24.714;2023-04-01T04:58:17;-24049.66;;;8.33;nan
7105;BME280;3594;42.152;24.714;2023-04-01T05:00:43;-24051.91;;;8.41;nan
7105;BME280;3594;42.152;24.714;2023-04-01T05:03:09;-24046.53;;;8.22;nan
7105;BME280;3594;42.152;24.714;2023-04-01T05:05:35;-24046.09;;;8.20;nan
7105;BME280;3594;42.152;24.714;2023-04-01T05:08:01;-24042.28;;;8.07;nan
7105;BME280;3594;42.152;24.714;2023-04-01T05:10:26;-24043.84;;;8.12;nan
7105;BME280;3594;42.152;24.714;2023-04-01T05:12:52;-24061.41;;;8.75;nan
7105;BME280;3594;42.152;24.714;2023-04-01T05:15:17;-24059.28;;;8.67;nan
7105;BME280;3594;42.152;24.714;2023-04-01T05:17:43;-24053.19;;;8.46;nan
7105;BME280;3594;42.152;24.714;2023-04-01T05:20:08;-24061.97;;;8.77;nan
7105;BME280;3594;42.152;24.714;2023-04-01T05:22:34;-24059.97;;;8.70;nan
7105;BME280;3594;42.152;24.714;2023-04-01T05:25:00;-24062.25;;;8.78;nan
7105;BME280;3594;42.152;24.714;2023-04-01T05:27:25;-24063.53;;;8.82;nan
7105;BME280;3594;42.152;24.714;2023-04-01T05:29:51;-24074.25;;;9.21;nan
7105;BME280;3594;42.152;24.714;2023-04-01T05:32:16;-24079.06;;;9.38;nan
7105;BME280;3594;42.152;24.714;2023-04-01T05:34:42;-24078.50;;;9.36;nan
7105;BME280;3594;42.152;24.714;2023-04-01T05:37:07;-24071.44;;;9.11;nan
7105;BME280;3594;42.152;24.714;2023-04-01T05:39:37;-24081.47;;;9.47;nan
7105;BME280;3594;42.152;24.714;2023-04-01T05:42:04;-24079.91;;;9.41;nan
7105;BME280;3594;42.152;24.714;2023-04-01T05:44:30;-24082.31;;;9.50;nan
7105;BME280;3594;42.152;24.714;2023-04-01T05:46:56;-24069.31;;;9.03;nan
7105;BME280;3594;42.152;24.714;2023-04-01T05:49:22;-24068.91;;;9.02;nan
7105;BME280;3594;42.152;24.714;2023-04-01T05:51:47;-24068.63;;;9.01;nan
7105;BME280;3594;42.152;24.714;2023-04-01T05:54:12;-24071.88;;;9.12;nan
7105;BME280;3594;42.152;24.714;2023-04-01T05:56:38;-24076.94;;;9.30;nan
7105;BME280;3594;42.152;24.714;2023-04-01T05:59:03;-24075.41;;;9.25;nan
7105;BME280;3594;42.152;24.714;2023-04-01T06:01:29;-24080.34;;;9.43;nan
7105;BME280;3594;42.152;24.714;2023-04-01T06:03:54;-24079.06;;;9.38;nan
7105;BME280;3594;42.152;24.714;2023-04-01T06:06:24;-24080.06;;;9.42;nan
7105;BME280;3594;42.152;24.714;2023-04-01T06:08:51;-24094.34;;;9.93;nan
7105;BME280;3594;42.152;24.714;2023-04-01T06:16:39;-24115.78;;;10.70;nan
7105;BME280;3594;42.152;24.714;2023-04-01T06:19:13;-24119.59;;;10.83;nan
7105;BME280;3594;42.152;24.714;2023-04-01T06:21:59;-24113.13;;;10.60;nan
7105;BME280;3594;42.152;24.714;2023-04-01T06:30:30;-24133.56;;;11.33;nan
7105;BME280;3594;42.152;24.714;2023-04-01T06:36:34;-24135.66;;;11.41;nan
7105;BME280;3594;42.152;24.714;2023-04-01T06:46:57;-24134.13;;;11.35;nan
7105;BME280;3594;42.152;24.714;2023-04-01T06:54:25;-24153.13;;;12.04;nan
7105;BME280;3594;42.152;24.714;2023-04-01T06:56:58;-24154.41;;;12.08;nan
7105;BME280;3594;42.152;24.714;2023-04-01T06:59:28;-24167.63;;;12.56;nan
7105;BME280;3594;42.152;24.714;2023-04-01T07:01:58;-24156.78;;;12.17;nan
7105;BME280;3594;42.152;24.714;2023-04-01T07:04:26;-24171.00;;;12.68;nan
7105;BME280;3594;42.152;24.714;2023-04-01T07:09:58;-24178.59;;;12.95;nan
7105;BME280;3594;42.152;24.714;2023-04-01T07:12:38;-24174.38;;;12.80;nan
7105;BME280;3594;42.152;24.714;2023-04-01T07:17:42;-24171.00;;;12.68;nan
7105;BME280;3594;42.152;24.714;2023-04-01T07:20:28;-24184.22;;;13.15;nan
7105;BME280;3594;42.152;24.714;2023-04-01T07:23:01;-24183.09;;;13.11;nan
7105;BME280;3594;42.152;24.714;2023-04-01T07:25:31;-24187.59;;;13.27;nan
7105;BME280;3594;42.152;24.714;2023-04-01T07:28:10;-24188.03;;;13.29;nan
7105;BME280;3594;42.152;24.714;2023-04-01T07:31:06;-24203.19;;;13.84;nan
7105;BME280;3594;42.152;24.714;2023-04-01T07:34:12;-24204.72;;;13.89;nan
7105;BME280;3594;42.152;24.714;2023-04-01T07:36:57;-24193.34;;;13.48;nan
7105;BME280;3594;42.152;24.714;2023-04-01T07:39:50;-24176.34;;;12.87;nan
7105;BME280;3594;42.152;24.714;2023-04-01T07:45:37;-24198.28;;;13.66;nan
7105;BME280;3594;42.152;24.714;2023-04-01T07:50:47;-24194.19;;;13.51;nan
7105;BME280;3594;42.152;24.714;2023-04-01T07:53:26;-24197.72;;;13.64;nan
7105;BME280;3594;42.152;24.714;2023-04-01T07:56:05;-24195.47;;;13.56;nan
7105;BME280;3594;42.152;24.714;2023-04-01T07:58:47;-24201.78;;;13.79;nan
7105;BME280;3594;42.152;24.714;2023-04-01T08:07:08;-24193.63;;;13.49;nan
7105;BME280;3594;42.152;24.714;2023-04-01T08:09:54;-24193.50;;;13.49;nan
7105;BME280;3594;42.152;24.714;2023-04-01T08:12:38;-24193.50;;;13.49;nan
7105;BME280;3594;42.152;24.714;2023-04-01T08:15:28;-24177.34;;;12.91;nan
7105;BME280;3594;42.152;24.714;2023-04-01T08:18:16;-24177.91;;;12.93;nan
7105;BME280;3594;42.152;24.714;2023-04-01T08:20:51;-24180.84;;;13.03;nan
7105;BME280;3594;42.152;24.714;2023-04-01T08:23:21;-24173.53;;;12.77;nan
7105;BME280;3594;42.152;24.714;2023-04-01T08:25:53;-24176.63;;;12.88;nan
7105;BME280;3594;42.152;24.714;2023-04-01T08:28:29;-24177.06;;;12.90;nan
7105;BME280;3594;42.152;24.714;2023-04-01T08:31:05;-24177.19;;;12.90;nan
7105;BME280;3594;42.152;24.714;2023-04-01T08:33:32;-24172.41;;;12.73;nan
7105;BME280;3594;42.152;24.714;2023-04-01T08:42:27;-24177.19;;;12.90;nan
7105;BME280;3594;42.152;24.714;2023-04-01T08:56:01;-24195.19;;;13.55;nan
7105;BME280;3594;42.152;24.714;2023-04-01T08:58:46;-24196.03;;;13.58;nan
7105;BME280;3594;42.152;24.714;2023-04-01T09:10:32;-24188.03;;;13.29;nan
7105;BME280;3594;42.152;24.714;2023-04-01T09:15:17;-24201.09;;;13.76;nan
7105;BME280;3594;42.152;24.714;2023-04-01T09:26:25;-24203.59;;;13.85;nan
7105;BME280;3594;42.152;24.714;2023-04-01T09:34:57;-24211.19;;;14.12;nan
7105;BME280;3594;42.152;24.714;2023-04-01T09:45:46;-24231.09;;;14.84;nan
7105;BME280;3594;42.152;24.714;2023-04-01T09:48:41;-24239.94;;;15.16;nan
7105;BME280;3594;42.152;24.714;2023-04-01T09:51:33;-24251.28;;;15.57;nan
7105;BME280;3594;42.152;24.714;2023-04-01T10:03:12;-24253.22;;;15.64;nan
7105;BME280;3594;42.152;24.714;2023-04-01T10:11:22;-24251.00;;;15.56;nan
7105;BME280;3594;42.152;24.714;2023-04-01T10:55:46;-24285.25;;;16.80;nan
7105;BME280;3594;42.152;24.714;2023-04-01T10:58:30;-24289.88;;;16.97;nan
7105;BME280;3594;42.152;24.714;2023-04-01T11:01:40;-24293.78;;;17.11;nan
7105;BME280;3594;42.152;24.714;2023-04-01T11:12:15;-24298.25;;;17.27;nan
7105;BME280;3594;42.152;24.714;2023-04-01T11:20:29;-24308.84;;;17.65;nan
7105;BME280;3594;42.152;24.714;2023-04-01T11:26:06;-24317.22;;;17.96;nan
7105;BME280;3594;42.152;24.714;2023-04-01T11:28:42;-24307.47;;;17.60;nan
7105;BME280;3594;42.152;24.714;2023-04-01T11:42:38;-24349.25;;;19.12;nan
7105;BME280;3594;42.152;24.714;2023-04-01T11:45:53;-24364.28;;;19.67;nan
7105;BME280;3594;42.152;24.714;2023-04-01T11:56:29;-24375.69;;;20.08;nan
7105;BME280;3594;42.152;24.714;2023-04-01T11:59:02;-24379.28;;;20.21;nan
7105;BME280;3594;42.152;24.714;2023-04-01T12:01:44;-24376.09;;;20.10;nan
7105;BME280;3594;42.152;24.714;2023-04-01T12:10:37;-24323.63;;;18.19;nan
7105;BME280;3594;42.152;24.714;2023-04-01T12:12:58;-24336.59;;;18.66;nan
7105;BME280;3594;42.152;24.714;2023-04-01T12:15:48;-24340.06;;;18.79;nan
7105;BME280;3594;42.152;24.714;2023-04-01T12:21:17;-24344.81;;;18.96;nan
7105;BME280;3594;42.152;24.714;2023-04-01T12:26:47;-24358.03;;;19.44;nan
7105;BME280;3594;42.152;24.714;2023-04-01T12:34:31;-24391.38;;;20.65;nan
7105;BME280;3594;42.152;24.714;2023-04-01T12:40:07;-24384.28;;;20.40;nan
7105;BME280;3594;42.152;24.714;2023-04-01T12:56:42;-24369.56;;;19.86;nan
7105;BME280;3594;42.152;24.714;2023-04-01T13:13:17;-24364.00;;;19.66;nan
7105;BME280;3594;42.152;24.714;2023-04-01T13:15:55;-24358.59;;;19.46;nan
7105;BME280;3594;42.152;24.714;2023-04-01T13:18:25;-24359.84;;;19.51;nan
7105;BME280;3594;42.152;24.714;2023-04-01T13:21:23;-24338.25;;;18.72;nan
7105;BME280;3594;42.152;24.714;2023-04-01T13:26:52;-24332.28;;;18.50;nan
7105;BME280;3594;42.152;24.714;2023-04-01T13:29:25;-24271.97;;;16.32;nan
7105;BME280;3594;42.152;24.714;2023-04-01T13:32:06;-24311.38;;;17.75;nan
7105;BME280;3594;42.152;24.714;2023-04-01T13:34:52;-24294.34;;;17.13;nan
7105;BME280;3594;42.152;24.714;2023-04-01T13:37:51;-24277.72;;;16.53;nan
7105;BME280;3594;42.152;24.714;2023-04-01T13:43:20;-24277.56;;;16.52;nan
7105;BME280;3594;42.152;24.714;2023-04-01T13:57:00;-24264.00;;;16.03;nan
7105;BME280;3594;42.152;24.714;2023-04-01T14:03:01;-24262.88;;;15.99;nan
7105;BME280;3594;42.152;24.714;2023-04-01T14:11:17;-24238.38;;;15.11;nan
7105;BME280;3594;42.152;24.714;2023-04-01T14:14:08;-24247.91;;;15.45;nan
7105;BME280;3594;42.152;24.714;2023-04-01T14:47:11;-24249.31;;;15.50;nan
7105;BME280;3594;42.152;24.714;2023-04-01T14:49:49;-24242.59;;;15.26;nan
7105;BME280;3594;42.152;24.714;2023-04-01T14:52:24;-24251.56;;;15.58;nan
7105;BME280;3594;42.152;24.714;2023-04-01T14:54:52;-24247.06;;;15.42;nan
7105;BME280;3594;42.152;24.714;2023-04-01T14:57:27;-24246.50;;;15.40;nan
7105;BME280;3594;42.152;24.714;2023-04-01T15:00:00;-24234.03;;;14.95;nan
7105;BME280;3594;42.152;24.714;2023-04-01T15:10:42;-24228.03;;;14.73;nan
7105;BME280;3594;42.152;24.714;2023-04-01T15:24:24;-24225.34;;;14.64;nan
7105;BME280;3594;42.152;24.714;2023-04-01T15:32:45;-24218.22;;;14.38;nan
7105;BME280;3594;42.152;24.714;2023-04-01T15:38:03;-24221.84;;;14.51;nan
7105;BME280;3594;42.152;24.714;2023-04-01T15:40:43;-24218.22;;;14.38;nan
7105;BME280;3594;42.152;24.714;2023-04-01T15:43:19;-24221.72;;;14.50;nan
7105;BME280;3594;42.152;24.714;2023-04-01T16:02:46;-24194.34;;;13.52;nan
7105;BME280;3594;42.152;24.714;2023-04-01T16:24:30;-24205.00;;;13.90;nan
7105;BME280;3594;42.152;24.714;2023-04-01T16:27:02;-24204.59;;;13.89;nan
7105;BME280;3594;42.152;24.714;2023-04-01T16:32:31;-24195.75;;;13.57;nan
7105;BME280;3594;42.152;24.714;2023-04-01T16:35:57;-24204.44;;;13.88;nan
7105;BME280;3594;42.152;24.714;2023-04-01T16:38:18;-24190.25;;;13.37;nan
7105;BME280;3594;42.152;24.714;2023-04-01T16:41:17;-24205.16;;;13.91;nan
7105;BME280;3594;42.152;24.714;2023-04-01T16:49:17;-24188.03;;;13.29;nan
7105;BME280;3594;42.152;24.714;2023-04-01T16:54:40;-24185.34;;;13.19;nan
7105;BME280;3594;42.152;24.714;2023-04-01T16:59:47;-24181.13;;;13.04;nan
7105;BME280;3594;42.152;24.714;2023-04-01T17:02:17;-24174.38;;;12.80;nan
7105;BME280;3594;42.152;24.714;2023-04-01T17:05:05;-24171.00;;;12.68;nan
7105;BME280;3594;42.152;24.714;2023-04-01T17:18:51;-24166.22;;;12.51;nan
7105;BME280;3594;42.152;24.714;2023-04-01T17:24:36;-24163.97;;;12.43;nan
7105;BME280;3594;42.152;24.714;2023-04-01T17:33:20;-24162.28;;;12.36;nan
7105;BME280;3594;42.152;24.714;2023-04-01T17:36:32;-24163.97;;;12.43;nan
7105;BME280;3594;42.152;24.714;2023-04-01T17:39:05;-24168.47;;;12.59;nan
7105;BME280;3594;42.152;24.714;2023-04-01T17:41:46;-24173.53;;;12.77;nan
7105;BME280;3594;42.152;24.714;2023-04-01T17:47:08;-24155.81;;;12.13;nan
7105;BME280;3594;42.152;24.714;2023-04-01T17:50:02;-24161.44;;;12.33;nan
7105;BME280;3594;42.152;24.714;2023-04-01T17:52:48;-24166.38;;;12.51;nan
7105;BME280;3594;42.152;24.714;2023-04-01T17:58:20;-24170.72;;;12.67;nan
7105;BME280;3594;42.152;24.714;2023-04-01T18:01:11;-24171.00;;;12.68;nan
7105;BME280;3594;42.152;24.714;2023-04-01T18:08:59;-24162.44;;;12.37;nan
7105;BME280;3594;42.152;24.714;2023-04-01T18:11:51;-24167.91;;;12.57;nan
7105;BME280;3594;42.152;24.714;2023-04-01T18:21:45;-24168.75;;;12.60;nan
7105;BME280;3594;42.152;24.714;2023-04-01T18:27:00;-24158.34;;;12.22;nan
7105;BME280;3594;42.152;24.714;2023-04-01T18:37:22;-24159.47;;;12.26;nan
7105;BME280;3594;42.152;24.714;2023-04-01T18:42:58;-24148.50;;;11.87;nan
7105;BME280;3594;42.152;24.714;2023-04-01T18:45:46;-24150.19;;;11.93;nan
7105;BME280;3594;42.152;24.714;2023-04-01T18:50:58;-24139.34;;;11.54;nan
7105;BME280;3594;42.152;24.714;2023-04-01T18:53:38;-24140.59;;;11.59;nan
7105;BME280;3594;42.152;24.714;2023-04-01T18:56:14;-24132.84;;;11.31;nan
7105;BME280;3594;42.152;24.714;2023-04-01T18:58:58;-24139.47;;;11.55;nan
7105;BME280;3594;42.152;24.714;2023-04-01T19:01:26;-24136.94;;;11.45;nan
7105;BME280;3594;42.152;24.714;2023-04-01T19:06:45;-24136.66;;;11.44;nan
7105;BME280;3594;42.152;24.714;2023-04-01T19:17:20;-24129.75;;;11.20;nan
7105;BME280;3594;42.152;24.714;2023-04-01T19:25:35;-24128.19;;;11.14;nan
7105;BME280;3594;42.152;24.714;2023-04-01T19:36:49;-24119.75;;;10.84;nan
7105;BME280;3594;42.152;24.714;2023-04-01T19:45:00;-24037.88;;;7.91;nan
7105;BME280;3594;42.152;24.714;2023-04-01T19:48:00;-24111.84;;;10.55;nan
7105;BME280;3594;42.152;24.714;2023-04-01T19:50:40;-24101.41;;;10.18;nan
7105;BME280;3594;42.152;24.714;2023-04-01T19:56:24;-24094.19;;;9.92;nan
7105;BME280;3594;42.152;24.714;2023-04-01T20:01:53;-24107.03;;;10.38;nan
7105;BME280;3594;42.152;24.714;2023-04-01T20:04:30;-24107.47;;;10.40;nan
7105;BME280;3594;42.152;24.714;2023-04-01T20:09:59;-24105.78;;;10.34;nan
7105;BME280;3594;42.152;24.714;2023-04-01T20:17:47;-24087.28;;;9.67;nan
7105;BME280;3594;42.152;24.714;2023-04-01T20:20:21;-24087.56;;;9.68;nan
7105;BME280;3594;42.152;24.714;2023-04-01T20:25:43;-24091.22;;;9.82;nan
7105;BME280;3594;42.152;24.714;2023-04-01T20:28:21;-24088.13;;;9.70;nan
7105;BME280;3594;42.152;24.714;2023-04-01T20:36:16;-24087.28;;;9.67;nan
7105;BME280;3594;42.152;24.714;2023-04-01T20:41:55;-24086.97;;;9.66;nan
7105;BME280;3594;42.152;24.714;2023-04-01T20:47:40;-24089.25;;;9.74;nan
7105;BME280;3594;42.152;24.714;2023-04-01T20:52:49;-24084.44;;;9.57;nan
7105;BME280;3594;42.152;24.714;2023-04-01T21:07:15;-24084.59;;;9.58;nan
7105;BME280;3594;42.152;24.714;2023-04-01T21:12:53;-24091.78;;;9.84;nan
7105;BME280;3594;42.152;24.714;2023-04-01T21:18:34;-24081.34;;;9.46;nan
7105;BME280;3594;42.152;24.714;2023-04-01T21:29:31;-24093.22;;;9.89;nan
7105;BME280;3594;42.152;24.714;2023-04-01T21:43:42;-24090.66;;;9.80;nan
7105;BME280;3594;42.152;24.714;2023-04-01T21:46:09;-24086.97;;;9.66;nan
7105;BME280;3594;42.152;24.714;2023-04-01T21:54:04;-24082.59;;;9.51;nan
7105;BME280;3594;42.152;24.714;2023-04-01T22:02:53;-24084.72;;;9.58;nan
7105;BME280;3594;42.152;24.714;2023-04-01T22:05:36;-24085.44;;;9.61;nan
7105;BME280;3594;42.152;24.714;2023-04-01T22:13:33;-24076.09;;;9.27;nan
7105;BME280;3594;42.152;24.714;2023-04-01T22:18:41;-24071.44;;;9.11;nan
7105;BME280;3594;42.152;24.714;2023-04-01T22:21:22;-24068.91;;;9.02;nan
7105;BME280;3594;42.152;24.714;2023-04-01T22:29:03;-24064.66;;;8.86;nan
7105;BME280;3594;42.152;24.714;2023-04-01T22:31:58;-24065.34;;;8.89;nan
7105;BME280;3594;42.152;24.714;2023-04-01T22:37:18;-24064.66;;;8.86;nan
7105;BME280;3594;42.152;24.714;2023-04-01T22:42:56;-24057.44;;;8.61;nan
7105;BME280;3594;42.152;24.714;2023-04-01T22:48:32;-24056.31;;;8.57;nan
7105;BME280;3594;42.152;24.714;2023-04-01T22:51:22;-24060.97;;;8.73;nan
7105;BME280;3594;42.152;24.714;2023-04-01T22:54:45;-24066.50;;;8.93;nan
7105;BME280;3594;42.152;24.714;2023-04-01T23:00:19;-24065.66;;;8.90;nan
7105;BME280;3594;42.152;24.714;2023-04-01T23:05:34;-24071.31;;;9.10;nan
7105;BME280;3594;42.152;24.714;2023-04-01T23:10:54;-24065.78;;;8.91;nan
7105;BME280;3594;42.152;24.714;2023-04-01T23:13:25;-24064.09;;;8.84;nan
7105;BME280;3594;42.152;24.714;2023-04-01T23:15:53;-24063.66;;;8.83;nan
7105;BME280;3594;42.152;24.714;2023-04-01T23:18:33;-24064.09;;;8.84;nan
7105;BME280;3594;42.152;24.714;2023-04-01T23:23:57;-24059.00;;;8.66;nan
7105;BME280;3594;42.152;24.714;2023-04-01T23:26:34;-24055.88;;;8.55;nan
7105;BME280;3594;42.152;24.714;2023-04-01T23:29:02;-24055.03;;;8.52;nan
7105;BME280;3594;42.152;24.714;2023-04-01T23:31:42;-24062.38;;;8.78;nan
7105;BME280;3594;42.152;24.714;2023-04-01T23:36:42;-24051.06;;;8.38;nan
7105;BME280;3594;42.152;24.714;2023-04-01T23:41:54;-24049.78;;;8.33;nan
7105;BME280;3594;42.152;24.714;2023-04-01T23:44:24;-24044.28;;;8.14;nan
7105;BME280;3594;42.152;24.714;2023-04-01T23:46:51;-24034.78;;;7.80;nan
7105;BME280;3594;42.152;24.714;2023-04-01T23:49:24;-24042.56;;;8.08;nan
7105;BME280;3594;42.152;24.714;2023-04-01T23:51:58;-24043.69;;;8.12;nan
7105;BME280;3594;42.152;24.714;2023-04-01T23:54:33;-24044.13;;;8.13;nan
7105;BME280;3594;42.152;24.714;2023-04-01T23:57:05;-24039.44;;;7.96;nan